Coscoshipping Panama — V7RB9 — position and weather

sailwx.info

Track history (hours):
 
Tides and Currents Weather Stations Pressure Air Temp Water Temp Dewpoint Dewpoint Depression Visibility Wind Speed Wind Dir Waves Ship Positions

Coscoshipping Panama

Last reported at 2017-Oct-19 14:18 UTC. Time now 2017-Oct-20 19:39 UTC.
Position N 01°16' E 104°14'.

Length 300 m; draft 10.4 m.

Type: Ship (hazmat cat B). MMSI: 538006767.

Date/timePositionNaut miles runAvg speedWind from/ knotsBaromVisibWave heightAir tempDewpointWater temp
2017-Oct-19 14:18N 01°16' E 104°14'5 2.9
2017-Oct-19 12:28N 01°15' E 104°08'1 2.8
2017-Oct-19 12:00N 01°15' E 104°07'2 3.0
2017-Oct-19 11:29N 01°15' E 104°06'1 2.9
2017-Oct-19 11:00N 01°15' E 104°04'1 2.8
2017-Oct-19 10:30N 01°14' E 104°03'5 0.6
2017-Oct-19 02:08N 01°15' E 104°08'212.0
2017-Oct-19 01:59N 01°15' E 104°06'611.8
2017-Oct-19 01:30N 01°14' E 104°00'612.3
2017-Oct-19 01:00N 01°12' E 103°54'611.7
2017-Oct-19 00:30N 01°10' E 103°49'612.6
2017-Oct-19 00:00N 01°06' E 103°44'612.7
2017-Oct-18 23:30N 01°02' E 103°39'611.9
2017-Oct-18 22:59N 01°05' E 103°34'611.6
2017-Oct-18 22:30N 01°08' E 103°29'611.7
2017-Oct-18 21:59N 01°12' E 103°24'511.5
2017-Oct-18 21:30N 01°15' E 103°19'612.0
2017-Oct-18 20:59N 01°19' E 103°15'3411.7
2017-Oct-18 18:03N 01°38' E 102°46'112.0
2017-Oct-18 17:59N 01°38' E 102°45'  
Track history (hours):
 
Tides and Currents Weather Stations Pressure Air Temp Water Temp Dewpoint Dewpoint Depression Visibility Wind Speed Wind Dir Waves Ship Positions

Coscoshipping Panama

Last reported at 2017-Oct-19 14:18 UTC. Time now 2017-Oct-20 19:39 UTC.
Position N 01°16' E 104°14'.

Length 300 m; draft 10.4 m.

Type: Ship (hazmat cat B). MMSI: 538006767.

Date/timePositionNaut miles runAvg speedWind from/ knotsBaromVisibWave heightAir tempDewpointWater temp
2017-Oct-19 14:18N 01°16' E 104°14'5 2.9
2017-Oct-19 12:28N 01°15' E 104°08'1 2.8
2017-Oct-19 12:00N 01°15' E 104°07'2 3.0
2017-Oct-19 11:29N 01°15' E 104°06'1 2.9
2017-Oct-19 11:00N 01°15' E 104°04'1 2.8
2017-Oct-19 10:30N 01°14' E 104°03'5 0.6
2017-Oct-19 02:08N 01°15' E 104°08'212.0
2017-Oct-19 01:59N 01°15' E 104°06'611.8
2017-Oct-19 01:30N 01°14' E 104°00'612.3
2017-Oct-19 01:00N 01°12' E 103°54'611.7
2017-Oct-19 00:30N 01°10' E 103°49'612.6
2017-Oct-19 00:00N 01°06' E 103°44'612.7
2017-Oct-18 23:30N 01°02' E 103°39'611.9
2017-Oct-18 22:59N 01°05' E 103°34'611.6
2017-Oct-18 22:30N 01°08' E 103°29'611.7
2017-Oct-18 21:59N 01°12' E 103°24'511.5
2017-Oct-18 21:30N 01°15' E 103°19'612.0
2017-Oct-18 20:59N 01°19' E 103°15'3411.7
2017-Oct-18 18:03N 01°38' E 102°46'112.0
2017-Oct-18 17:59N 01°38' E 102°45'  

Dump ship's entire track history